Time,TemperatureF,DewpointF,PressureIn,WindDirection,WindDirectionDegrees,WindSpeedMPH,WindSpeedGustMPH,Humidity,HourlyPrecipIn,Conditions,Clouds,dailyrainin,SolarRadiationWatts/m^2,SoftwareType,DateUTC
2013-03-10 00:11:00,16.0,10.0,-100.00,South,174,2.0,5.0,76,-99.99,,,0.03,1.000000,,2013-03-10 08:11:00,
2013-03-10 03:11:00,13.0,9.0,-100.00,NNE,16,1.0,3.0,84,-99.99,,,0.03,1.000000,,2013-03-10 10:11:00,
2013-03-10 08:51:00,20.0,15.0,-100.00,SSE,166,0.0,2.0,81,-99.99,,,0.03,107.000000,,2013-03-10 15:51:00,
2013-03-10 09:21:00,20.0,15.0,-100.00,SSE,166,0.0,2.0,81,-99.99,,,0.03,107.000000,,2013-03-10 16:21:00,
2013-03-10 09:31:00,20.0,15.0,-100.00,SSE,166,0.0,2.0,81,-99.99,,,0.03,107.000000,,2013-03-10 16:31:00,
2013-03-10 09:41:00,20.0,15.0,-100.00,SSE,166,0.0,2.0,81,-99.99,,,0.03,107.000000,,2013-03-10 16:41:00,
2013-03-10 10:51:00,47.0,4.0,-100.00,North,6,3.0,7.0,17,-99.99,,,0.00,590.000000,,2013-03-10 17:51:00,
2013-03-10 11:11:00,47.0,4.0,-100.00,North,6,3.0,7.0,17,-99.99,,,0.00,590.000000,,2013-03-10 18:11:00,
2013-03-10 11:41:00,47.0,4.0,-100.00,North,6,3.0,7.0,17,-99.99,,,0.00,590.000000,,2013-03-10 18:41:00,
2013-03-10 12:21:00,52.0,6.0,-100.00,NNE,22,3.0,6.0,15,0.00,,,0.00,729.000000,,2013-03-10 19:21:00,
2013-03-10 13:12:00,56.0,6.0,-100.00,North,8,3.0,6.0,13,-99.99,,,0.00,783.000000,,2013-03-10 20:12:00,
2013-03-10 13:22:00,56.0,6.0,-100.00,North,8,3.0,6.0,13,-99.99,,,0.00,783.000000,,2013-03-10 20:22:00,
2013-03-10 14:22:00,56.0,13.0,-100.00,North,11,4.0,8.0,18,-99.99,,,0.00,812.000000,,2013-03-10 21:22:00,
2013-03-10 14:32:00,56.0,13.0,-100.00,North,11,4.0,8.0,18,-99.99,,,0.00,812.000000,,2013-03-10 21:32:00,
2013-03-10 14:51:00,55.0,10.0,-100.00,North,3,4.0,9.0,16,0.00,,,0.00,762.000000,,2013-03-10 21:51:00,
2013-03-10 15:12:00,55.0,10.0,-100.00,North,3,4.0,9.0,16,0.00,,,0.00,762.000000,,2013-03-10 22:12:00,
2013-03-10 15:22:00,55.0,10.0,-100.00,North,3,4.0,9.0,16,0.00,,,0.00,762.000000,,2013-03-10 22:22:00,
2013-03-10 15:32:00,55.0,10.0,-100.00,North,3,4.0,9.0,16,0.00,,,0.00,762.000000,,2013-03-10 22:32:00,
2013-03-10 15:42:00,55.0,10.0,-100.00,North,3,4.0,9.0,16,0.00,,,0.00,762.000000,,2013-03-10 22:42:00,
2013-03-10 16:12:00,58.0,4.0,-100.00,NW,324,2.0,9.0,11,0.00,,,0.00,668.000000,,2013-03-10 23:12:00,
2013-03-10 16:22:00,58.0,4.0,-100.00,NW,324,2.0,9.0,11,0.00,,,0.00,668.000000,,2013-03-10 23:22:00,
2013-03-10 16:51:00,54.0,9.0,-100.00,NNE,12,3.0,7.0,16,-99.99,,,0.00,399.000000,,2013-03-10 23:51:00,
2013-03-10 17:12:00,54.0,9.0,-100.00,NNE,12,3.0,7.0,16,-99.99,,,0.00,399.000000,,2013-03-11 00:12:00,
2013-03-10 17:22:00,54.0,9.0,-100.00,NNE,12,3.0,7.0,16,-99.99,,,0.00,399.000000,,2013-03-11 00:22:00,
2013-03-10 17:32:00,54.0,9.0,-100.00,NNE,12,3.0,7.0,16,-99.99,,,0.00,399.000000,,2013-03-11 00:32:00,
2013-03-10 17:42:00,54.0,9.0,-100.00,NNE,12,3.0,7.0,16,-99.99,,,0.00,399.000000,,2013-03-11 00:42:00,
2013-03-10 17:51:00,53.0,8.0,-100.00,NNE,29,3.0,8.0,16,0.00,,,0.00,255.000000,,2013-03-11 00:51:00,
2013-03-10 18:12:00,53.0,8.0,-100.00,NNE,29,3.0,8.0,16,0.00,,,0.00,255.000000,,2013-03-11 01:12:00,
2013-03-10 18:22:00,53.0,8.0,-100.00,NNE,29,3.0,8.0,16,0.00,,,0.00,255.000000,,2013-03-11 01:22:00,
2013-03-10 18:42:00,53.0,8.0,-100.00,NNE,29,3.0,8.0,16,0.00,,,0.00,255.000000,,2013-03-11 01:42:00,
2013-03-10 18:51:00,38.0,20.0,-100.00,SW,228,1.0,3.0,47,0.00,,,0.00,60.000000,,2013-03-11 01:51:00,
2013-03-10 19:22:00,38.0,20.0,-100.00,SW,228,1.0,3.0,47,0.00,,,0.00,60.000000,,2013-03-11 02:22:00,
2013-03-10 19:32:00,38.0,20.0,-100.00,SW,228,1.0,3.0,47,0.00,,,0.00,60.000000,,2013-03-11 02:32:00,
2013-03-10 19:42:00,38.0,20.0,-100.00,SW,228,1.0,3.0,47,0.00,,,0.00,60.000000,,2013-03-11 02:42:00,
2013-03-10 20:12:00,29.0,20.0,-100.00,SSW,192,0.0,2.0,69,0.00,,,0.00,3.000000,,2013-03-11 03:12:00,
2013-03-10 20:22:00,29.0,20.0,-100.00,SSW,192,0.0,2.0,69,0.00,,,0.00,3.000000,,2013-03-11 03:22:00,
2013-03-10 21:12:00,25.0,19.0,-100.00,South,170,0.0,0.0,77,-99.99,,,0.00,1.000000,,2013-03-11 04:12:00,
2013-03-10 21:22:00,25.0,19.0,-100.00,South,170,0.0,0.0,77,-99.99,,,0.00,1.000000,,2013-03-11 04:22:00,
2013-03-10 22:22:00,24.0,19.0,-100.00,NNE,23,0.0,2.0,80,-99.99,,,0.00,1.000000,,2013-03-11 05:22:00,
2013-03-10 23:12:00,22.0,18.0,-100.00,ESE,107,0.0,2.0,83,-99.99,,,0.00,1.000000,,2013-03-11 06:12:00,
2013-03-10 23:22:00,22.0,18.0,-100.00,ESE,107,0.0,2.0,83,-99.99,,,0.00,1.000000,,2013-03-11 06:22:00,